createdAt,value
2023-05-17T00:01:11.060Z,19.55
2023-05-17T00:03:56.505Z,15.35
2023-05-17T00:06:42.409Z,15.32
2023-05-17T00:09:27.825Z,16.02
2023-05-17T00:12:13.021Z,16.85
2023-05-17T00:14:58.912Z,16.17
2023-05-17T00:17:44.204Z,15.10
2023-05-17T00:20:29.499Z,19.20
2023-05-17T00:23:14.868Z,17.85
2023-05-17T00:26:00.293Z,16.10
2023-05-17T00:28:45.842Z,13.27
2023-05-17T00:31:31.014Z,20.55
2023-05-17T00:34:16.323Z,16.92
2023-05-17T00:37:01.419Z,15.38
2023-05-17T00:39:46.615Z,15.95
2023-05-17T00:42:31.848Z,18.33
2023-05-17T00:45:17.459Z,16.02
2023-05-17T00:48:02.999Z,17.88
2023-05-17T00:50:48.742Z,17.48
2023-05-17T00:53:34.162Z,23.40
2023-05-17T00:56:19.531Z,20.90
2023-05-17T00:59:06.557Z,21.80
2023-05-17T01:01:52.419Z,17.57
2023-05-17T01:04:38.684Z,17.13
2023-05-17T01:07:23.898Z,16.73
2023-05-17T01:10:09.818Z,16.30
2023-05-17T01:13:02.379Z,20.87
2023-05-17T01:15:57.184Z,18.17
2023-05-17T01:18:52.663Z,19.07
2023-05-17T01:22:02.525Z,16.95
2023-05-17T01:24:50.858Z,17.65
2023-05-17T01:27:39.772Z,20.50
2023-05-17T01:30:25.910Z,18.77
2023-05-17T01:33:12.429Z,16.33
2023-05-17T01:35:58.030Z,15.93
2023-05-17T01:38:43.216Z,18.17
2023-05-17T01:41:40.621Z,19.25
2023-05-17T01:44:37.726Z,17.55
2023-05-17T01:47:31.432Z,16.30
2023-05-17T01:50:19.664Z,19.52
2023-05-17T01:53:11.652Z,18.73
2023-05-17T01:56:10.445Z,18.63
2023-05-17T01:58:57.073Z,21.30
2023-05-17T02:01:42.767Z,23.30
2023-05-17T02:04:30.113Z,19.83
2023-05-17T02:07:15.675Z,20.00
2023-05-17T02:10:00.852Z,21.90
2023-05-17T02:12:46.336Z,17.30
2023-05-17T02:15:32.499Z,22.40
2023-05-17T02:18:17.559Z,24.83
2023-05-17T02:21:03.003Z,20.10
2023-05-17T02:23:48.255Z,18.77
2023-05-17T02:26:33.584Z,16.03
2023-05-17T02:29:18.962Z,21.42
2023-05-17T02:32:04.408Z,24.17
2023-05-17T02:34:49.847Z,22.23
2023-05-17T02:37:34.753Z,20.50
2023-05-17T02:40:20.574Z,19.25
2023-05-17T02:43:05.493Z,22.52
2023-05-17T02:45:50.965Z,19.48
2023-05-17T02:48:35.799Z,22.67
2023-05-17T02:51:21.150Z,25.58
2023-05-17T02:54:06.519Z,18.73
2023-05-17T02:56:52.036Z,19.98
2023-05-17T02:59:37.478Z,22.42
2023-05-17T03:02:22.881Z,22.05
2023-05-17T03:05:08.513Z,20.63
2023-05-17T03:07:53.404Z,23.60
2023-05-17T03:10:38.799Z,22.08
2023-05-17T03:13:24.029Z,22.43
2023-05-17T03:16:09.337Z,21.50
2023-05-17T03:18:54.925Z,20.98
2023-05-17T03:21:40.124Z,23.47
2023-05-17T03:24:25.366Z,24.00
2023-05-17T03:27:10.764Z,28.73
2023-05-17T03:29:56.027Z,22.17
2023-05-17T03:32:41.969Z,33.03
2023-05-17T03:35:27.321Z,25.23
2023-05-17T03:38:12.919Z,26.63
2023-05-17T03:40:58.455Z,26.83
2023-05-17T03:43:43.620Z,26.20
2023-05-17T03:46:29.069Z,24.00
2023-05-17T03:49:14.723Z,29.50
2023-05-17T03:51:59.697Z,29.20
2023-05-17T03:54:46.313Z,25.77
2023-05-17T03:57:33.388Z,26.40
2023-05-17T04:00:18.585Z,25.77
2023-05-17T04:03:03.841Z,25.77
2023-05-17T04:05:49.467Z,23.40
2023-05-17T04:08:35.137Z,27.07
2023-05-17T04:11:20.590Z,24.23
2023-05-17T04:14:06.164Z,24.37
2023-05-17T04:16:51.344Z,27.17
2023-05-17T04:19:36.726Z,24.40
2023-05-17T04:22:22.145Z,31.83
2023-05-17T04:25:07.937Z,24.37
2023-05-17T04:27:53.118Z,27.23
2023-05-17T04:30:43.172Z,28.83
2023-05-17T04:33:28.339Z,27.60
2023-05-17T04:36:13.599Z,25.90
2023-05-17T04:38:58.690Z,28.90
2023-05-17T04:41:43.980Z,36.00
2023-05-17T04:44:29.544Z,26.17
2023-05-17T04:47:14.824Z,30.23
2023-05-17T04:50:00.009Z,30.70
2023-05-17T04:52:48.521Z,30.88
2023-05-17T04:55:33.906Z,26.00
2023-05-17T04:58:19.182Z,30.83
2023-05-17T05:01:05.581Z,26.38
2023-05-17T05:03:50.597Z,25.88
2023-05-17T05:06:35.930Z,25.85
2023-05-17T05:09:21.385Z,27.60
2023-05-17T05:12:07.058Z,32.25
2023-05-17T05:14:52.432Z,29.42
2023-05-17T05:17:37.906Z,26.75
2023-05-17T05:20:24.669Z,29.55
2023-05-17T05:23:11.695Z,27.33
2023-05-17T05:25:57.234Z,30.38
2023-05-17T05:28:42.599Z,29.55
2023-05-17T05:31:28.140Z,33.40
2023-05-17T05:34:13.513Z,29.35
2023-05-17T05:36:58.714Z,29.90
2023-05-17T05:39:44.040Z,34.08
2023-05-17T05:42:29.424Z,31.77
2023-05-17T05:45:14.548Z,31.92
2023-05-17T05:47:59.891Z,36.67
2023-05-17T05:50:45.367Z,28.55
2023-05-17T05:53:30.422Z,26.73
2023-05-17T05:56:15.689Z,28.85
2023-05-17T05:59:01.136Z,33.40
2023-05-17T06:01:46.846Z,36.83
2023-05-17T06:04:43.805Z,27.83
2023-05-17T06:07:29.964Z,29.15
2023-05-17T06:10:14.906Z,29.52
2023-05-17T06:13:00.362Z,28.35
2023-05-17T06:15:45.540Z,33.50
2023-05-17T06:18:30.832Z,25.48
2023-05-17T06:21:16.325Z,29.98
2023-05-17T06:24:02.875Z,29.52
2023-05-17T06:26:50.018Z,26.13
2023-05-17T06:29:35.786Z,23.48
2023-05-17T06:32:20.666Z,28.80
2023-05-17T06:35:06.652Z,30.45
2023-05-17T06:37:52.049Z,24.92
2023-05-17T06:40:37.279Z,28.23
2023-05-17T06:43:23.036Z,29.30
2023-05-17T06:46:08.662Z,25.55
2023-05-17T06:48:54.034Z,21.23
2023-05-17T06:51:39.585Z,23.15
2023-05-17T06:54:25.041Z,21.73
2023-05-17T06:57:10.198Z,21.27
2023-05-17T06:59:55.590Z,27.83
2023-05-17T07:02:41.015Z,29.77
2023-05-17T07:05:26.592Z,25.70
2023-05-17T07:08:11.431Z,27.42
2023-05-17T07:10:57.154Z,27.17
2023-05-17T07:13:42.447Z,21.45
2023-05-17T07:16:27.935Z,25.83
2023-05-17T07:19:13.494Z,21.83
2023-05-17T07:21:58.810Z,24.73
2023-05-17T07:24:44.635Z,26.83
2023-05-17T07:27:30.243Z,18.55
2023-05-17T07:30:15.265Z,23.77
2023-05-17T07:33:00.838Z,23.70
2023-05-17T07:35:46.164Z,22.77
2023-05-17T07:38:31.905Z,22.70
2023-05-17T07:41:17.044Z,16.95
2023-05-17T07:44:02.317Z,23.75
2023-05-17T07:46:49.943Z,23.27
2023-05-17T07:49:34.997Z,20.75
2023-05-17T07:52:20.362Z,15.90
2023-05-17T07:55:05.742Z,21.63
2023-05-17T07:57:51.071Z,18.30
2023-05-17T08:00:36.434Z,20.45
2023-05-17T08:03:21.455Z,17.33
2023-05-17T08:06:07.075Z,21.63
2023-05-17T08:08:52.318Z,18.67
2023-05-17T08:11:37.580Z,17.05
2023-05-17T08:14:23.806Z,14.27
2023-05-17T08:17:09.377Z,17.67
2023-05-17T08:19:54.888Z,17.98
2023-05-17T08:22:40.067Z,15.10
2023-05-17T08:25:25.612Z,16.67
2023-05-17T08:28:10.648Z,16.67
2023-05-17T08:30:55.696Z,21.95
2023-05-17T08:33:41.324Z,21.02
2023-05-17T08:36:26.573Z,13.32
2023-05-17T08:39:11.998Z,16.80
2023-05-17T08:41:57.387Z,16.70
2023-05-17T08:44:42.384Z,13.13
2023-05-17T08:47:28.978Z,12.45
2023-05-17T08:50:13.870Z,14.63
2023-05-17T08:52:59.611Z,15.23
2023-05-17T08:55:46.955Z,17.48
2023-05-17T08:58:47.984Z,13.00
2023-05-17T09:01:42.812Z,15.25
2023-05-17T09:04:29.656Z,15.43
2023-05-17T09:07:17.183Z,15.55
2023-05-17T09:10:02.699Z,14.90
2023-05-17T09:12:48.537Z,15.35
2023-05-17T09:15:33.594Z,17.52
2023-05-17T09:18:19.611Z,14.02
2023-05-17T09:21:05.386Z,17.90
2023-05-17T09:24:05.509Z,13.60
2023-05-17T09:26:52.321Z,17.08
2023-05-17T09:29:39.385Z,17.40
2023-05-17T09:32:24.448Z,15.02
2023-05-17T09:35:10.333Z,11.93
2023-05-17T09:38:10.167Z,15.00
2023-05-17T09:40:55.470Z,17.63
2023-05-17T09:43:40.801Z,11.63
2023-05-17T09:46:26.034Z,15.85
2023-05-17T09:49:11.297Z,14.40
2023-05-17T09:51:56.678Z,17.02
2023-05-17T09:54:41.647Z,16.25
2023-05-17T09:57:29.017Z,13.35
2023-05-17T10:00:15.940Z,17.67
2023-05-17T10:03:03.810Z,15.02
2023-05-17T10:05:51.604Z,13.80
2023-05-17T10:08:38.450Z,17.05
2023-05-17T10:11:30.212Z,15.10
2023-05-17T10:14:18.816Z,15.73
2023-05-17T10:17:04.561Z,13.93
2023-05-17T10:19:50.956Z,13.35
2023-05-17T10:22:37.538Z,14.60
2023-05-17T10:25:23.789Z,13.93
2023-05-17T10:28:10.982Z,14.27
2023-05-17T10:30:58.961Z,15.05
2023-05-17T10:33:47.191Z,18.50
2023-05-17T10:36:33.790Z,17.75
2023-05-17T10:39:21.428Z,11.10
2023-05-17T10:42:14.657Z,16.88
2023-05-17T10:45:01.607Z,15.95
2023-05-17T10:47:46.581Z,13.88
2023-05-17T10:50:32.334Z,19.25
2023-05-17T10:53:17.815Z,16.27
2023-05-17T10:56:03.365Z,15.35
2023-05-17T10:58:48.694Z,17.15
2023-05-17T11:01:53.646Z,17.50
2023-05-17T11:04:50.173Z,15.95
2023-05-17T11:07:35.623Z,19.23
2023-05-17T11:10:21.481Z,16.15
2023-05-17T11:13:25.284Z,12.15
2023-05-17T11:16:10.545Z,15.30
2023-05-17T11:19:06.259Z,15.35
2023-05-17T11:21:51.752Z,15.25
2023-05-17T11:24:42.182Z,17.95
2023-05-17T11:27:35.665Z,16.35
2023-05-17T11:30:34.400Z,17.60
2023-05-17T11:33:32.324Z,13.93
2023-05-17T11:36:20.508Z,14.43
2023-05-17T11:39:13.830Z,16.05
2023-05-17T11:41:58.972Z,19.23
2023-05-17T11:44:44.430Z,18.38
2023-05-17T11:47:30.098Z,19.80
2023-05-17T11:50:15.471Z,14.95
2023-05-17T11:53:00.841Z,17.88
2023-05-17T11:55:51.019Z,15.55
2023-05-17T11:58:36.946Z,16.50
2023-05-17T12:01:22.091Z,16.35
2023-05-17T12:04:07.542Z,17.65
2023-05-17T12:06:56.487Z,18.02
2023-05-17T12:09:44.736Z,15.85
2023-05-17T12:12:30.317Z,14.95
2023-05-17T12:15:19.031Z,15.18
2023-05-17T12:18:04.524Z,16.15
2023-05-17T12:20:53.962Z,15.40
2023-05-17T12:23:41.040Z,15.90
2023-05-17T12:26:26.487Z,13.35
2023-05-17T12:29:12.890Z,14.95
2023-05-17T12:31:59.318Z,17.95
2023-05-17T12:34:45.364Z,15.55
2023-05-17T12:37:30.663Z,16.90
2023-05-17T12:40:15.647Z,16.15
2023-05-17T12:43:02.390Z,15.38
2023-05-17T12:45:47.763Z,15.88
2023-05-17T12:48:38.192Z,15.27
2023-05-17T12:51:23.838Z,16.83
2023-05-17T12:54:09.133Z,13.90
2023-05-17T12:56:54.524Z,18.38
2023-05-17T12:59:47.322Z,16.50
2023-05-17T13:02:32.593Z,16.60
2023-05-17T13:05:18.457Z,16.50
2023-05-17T13:08:20.072Z,16.90
2023-05-17T13:11:10.035Z,18.27
2023-05-17T13:13:55.287Z,17.77
2023-05-17T13:16:40.898Z,17.33
2023-05-17T13:19:26.609Z,18.55
2023-05-17T13:22:11.813Z,18.55
2023-05-17T13:24:56.946Z,14.18
2023-05-17T13:27:42.381Z,17.42
2023-05-17T13:30:27.767Z,19.30
2023-05-17T13:33:13.062Z,18.35
2023-05-17T13:35:58.564Z,17.90
2023-05-17T13:38:43.760Z,13.73
2023-05-17T13:41:29.289Z,15.35
2023-05-17T13:44:15.187Z,20.13
2023-05-17T13:47:00.559Z,17.60
2023-05-17T13:49:45.861Z,16.50
2023-05-17T13:52:31.233Z,16.58
2023-05-17T13:55:16.598Z,15.07
2023-05-17T13:58:01.624Z,16.98
2023-05-17T14:00:46.935Z,19.30
2023-05-17T14:03:32.448Z,16.35
2023-05-17T14:06:18.333Z,18.00
2023-05-17T14:09:03.736Z,21.92
2023-05-17T14:11:49.208Z,16.52
2023-05-17T14:14:34.610Z,19.00
2023-05-17T14:17:19.508Z,17.83
2023-05-17T14:20:05.680Z,13.90
2023-05-17T14:22:50.874Z,15.88
2023-05-17T14:25:37.559Z,13.55
2023-05-17T14:28:22.897Z,17.83
2023-05-17T14:31:09.296Z,15.20
2023-05-17T14:33:54.588Z,18.13
2023-05-17T14:36:40.158Z,16.33
2023-05-17T14:39:25.584Z,13.43
2023-05-17T14:42:11.014Z,15.02
2023-05-17T14:44:56.457Z,14.55
2023-05-17T14:47:41.654Z,15.27
2023-05-17T14:50:27.302Z,14.18
2023-05-17T14:53:12.904Z,14.40
2023-05-17T14:55:58.460Z,20.98
2023-05-17T14:58:43.609Z,16.05
2023-05-17T15:01:29.012Z,15.63
2023-05-17T15:04:14.441Z,13.55
2023-05-17T15:06:59.784Z,14.80
2023-05-17T15:09:45.036Z,15.93
2023-05-17T15:12:30.730Z,15.02
2023-05-17T15:15:15.913Z,17.42
2023-05-17T15:18:01.092Z,14.05
2023-05-17T15:20:46.424Z,13.75
2023-05-17T15:23:31.727Z,13.73
2023-05-17T15:26:17.122Z,16.98
2023-05-17T15:29:02.143Z,19.30
2023-05-17T15:31:47.461Z,13.73
2023-05-17T15:34:32.723Z,15.63
2023-05-17T15:37:17.563Z,14.80
2023-05-17T15:40:10.226Z,17.45
2023-05-17T15:42:55.477Z,15.65
2023-05-17T15:45:40.627Z,16.35
2023-05-17T15:48:25.882Z,14.73
2023-05-17T15:51:11.097Z,12.85
2023-05-17T15:53:56.512Z,13.68
2023-05-17T15:56:41.356Z,13.48
2023-05-17T15:59:26.130Z,12.77
2023-05-17T16:02:11.493Z,10.88
2023-05-17T16:04:56.775Z,14.50
2023-05-17T16:07:41.641Z,17.98
2023-05-17T16:10:27.166Z,14.57
2023-05-17T16:13:12.571Z,12.05
2023-05-17T16:15:58.536Z,13.80
2023-05-17T16:18:43.698Z,14.77
2023-05-17T16:21:29.354Z,17.50
2023-05-17T16:24:14.677Z,14.23
2023-05-17T16:27:00.141Z,13.65
2023-05-17T16:29:45.027Z,14.55
2023-05-17T16:32:30.525Z,16.40
2023-05-17T16:35:16.679Z,13.93
2023-05-17T16:38:01.618Z,14.65
2023-05-17T16:40:47.184Z,16.88
2023-05-17T16:43:32.403Z,14.60
2023-05-17T16:46:17.651Z,13.02
2023-05-17T16:49:02.992Z,12.85
2023-05-17T16:51:48.024Z,14.90
2023-05-17T16:54:34.703Z,12.88
2023-05-17T16:57:19.997Z,16.08
2023-05-17T17:00:06.025Z,15.02
2023-05-17T17:02:51.286Z,15.07
2023-05-17T17:05:36.736Z,15.52
2023-05-17T17:08:22.082Z,15.15
2023-05-17T17:11:07.060Z,10.82
2023-05-17T17:13:52.258Z,12.77
2023-05-17T17:16:38.248Z,11.45
2023-05-17T17:19:23.579Z,14.20
2023-05-17T17:22:08.927Z,12.43
2023-05-17T17:24:53.839Z,14.52
2023-05-17T17:27:39.232Z,11.00
2023-05-17T17:30:24.668Z,13.52
2023-05-17T17:33:09.988Z,15.13
2023-05-17T17:35:55.703Z,14.02
2023-05-17T17:38:40.829Z,13.07
2023-05-17T17:41:25.712Z,14.27
2023-05-17T17:44:11.055Z,16.52
2023-05-17T17:46:56.023Z,14.75
2023-05-17T17:49:41.358Z,16.45
2023-05-17T17:52:26.781Z,8.18
2023-05-17T17:55:12.101Z,14.00
2023-05-17T17:57:56.865Z,14.38
2023-05-17T18:00:41.736Z,13.73
2023-05-17T18:03:27.248Z,18.70
2023-05-17T18:06:12.694Z,13.35
2023-05-17T18:08:57.649Z,14.30
2023-05-17T18:11:42.980Z,13.40
2023-05-17T18:14:28.040Z,15.95
2023-05-17T18:17:13.424Z,14.05
2023-05-17T18:19:58.340Z,15.60
2023-05-17T18:22:43.877Z,13.60
2023-05-17T18:25:29.192Z,17.13
2023-05-17T18:28:14.597Z,16.17
2023-05-17T18:30:59.862Z,16.38
2023-05-17T18:33:45.753Z,17.30
2023-05-17T18:36:30.750Z,17.00
2023-05-17T18:39:16.276Z,13.20
2023-05-17T18:42:01.564Z,12.43
2023-05-17T18:44:47.252Z,17.83
2023-05-17T18:47:32.443Z,13.25
2023-05-17T18:50:17.769Z,14.15
2023-05-17T18:53:03.128Z,19.02
2023-05-17T18:55:48.510Z,13.27
2023-05-17T18:58:33.377Z,19.27
2023-05-17T19:01:18.612Z,14.82
2023-05-17T19:04:03.768Z,16.77
2023-05-17T19:06:49.028Z,13.88
2023-05-17T19:09:34.014Z,14.40
2023-05-17T19:12:19.222Z,18.45
2023-05-17T19:15:04.860Z,14.88
2023-05-17T19:17:50.267Z,17.75
2023-05-17T19:20:35.684Z,16.92
2023-05-17T19:23:20.918Z,14.15
2023-05-17T19:26:05.913Z,15.23
2023-05-17T19:28:50.757Z,14.70
2023-05-17T19:31:36.138Z,18.70
2023-05-17T19:34:21.618Z,14.60
2023-05-17T19:37:06.591Z,15.80
2023-05-17T19:39:52.100Z,15.32
2023-05-17T19:42:37.005Z,15.00
2023-05-17T19:45:22.369Z,13.77
2023-05-17T19:48:07.875Z,16.98
2023-05-17T19:50:54.964Z,17.83
2023-05-17T19:53:52.421Z,16.17
2023-05-17T19:56:38.329Z,17.58
2023-05-17T19:59:23.279Z,17.67
2023-05-17T20:02:08.173Z,18.10
2023-05-17T20:04:53.032Z,20.20
2023-05-17T20:07:37.905Z,14.52
2023-05-17T20:10:22.884Z,16.15
2023-05-17T20:13:07.774Z,15.50
2023-05-17T20:15:52.753Z,16.85
2023-05-17T20:18:42.273Z,15.50
2023-05-17T20:21:27.856Z,14.52
2023-05-17T20:24:13.096Z,17.00
2023-05-17T20:26:57.926Z,19.40
2023-05-17T20:29:43.345Z,19.05
2023-05-17T20:32:29.131Z,17.65
2023-05-17T20:35:14.188Z,18.50
2023-05-17T20:37:59.443Z,17.27
2023-05-17T20:40:44.839Z,21.05
2023-05-17T20:43:30.150Z,18.80
2023-05-17T20:46:16.172Z,15.70
2023-05-17T20:49:01.215Z,22.58
2023-05-17T20:51:46.833Z,14.13
2023-05-17T20:54:31.859Z,18.95
2023-05-17T20:57:16.973Z,15.77
2023-05-17T21:00:03.243Z,18.65
2023-05-17T21:02:48.714Z,16.38
2023-05-17T21:05:33.970Z,18.63
2023-05-17T21:08:19.337Z,20.58
2023-05-17T21:11:04.518Z,17.90
2023-05-17T21:13:50.046Z,15.30
2023-05-17T21:16:35.207Z,18.25
2023-05-17T21:19:20.670Z,21.67
2023-05-17T21:22:05.831Z,18.60
2023-05-17T21:24:52.180Z,17.20
2023-05-17T21:27:38.089Z,16.17
2023-05-17T21:30:23.875Z,19.20
2023-05-17T21:33:08.955Z,18.27
2023-05-17T21:35:54.094Z,16.80
2023-05-17T21:38:39.673Z,13.98
2023-05-17T21:41:24.850Z,16.70
2023-05-17T21:44:09.837Z,20.33
2023-05-17T21:46:56.882Z,19.40
2023-05-17T21:49:42.184Z,17.48
2023-05-17T21:52:27.219Z,20.40
2023-05-17T21:55:11.976Z,16.50
2023-05-17T21:57:57.049Z,18.23
2023-05-17T22:00:42.421Z,18.23
2023-05-17T22:03:27.570Z,17.42
2023-05-17T22:06:12.764Z,16.30
2023-05-17T22:08:58.024Z,19.23
2023-05-17T22:11:42.873Z,14.77
2023-05-17T22:14:28.487Z,18.17
2023-05-17T22:17:13.719Z,18.30
2023-05-17T22:20:01.308Z,17.55
2023-05-17T22:22:46.212Z,21.87
2023-05-17T22:25:31.091Z,17.00
2023-05-17T22:28:16.562Z,21.83
2023-05-17T22:31:02.396Z,23.40
2023-05-17T22:33:50.376Z,16.73
2023-05-17T22:36:35.384Z,21.30
2023-05-17T22:39:20.778Z,21.33
2023-05-17T22:42:07.338Z,20.38
2023-05-17T22:44:52.434Z,20.37
2023-05-17T22:47:38.172Z,16.23
2023-05-17T22:50:23.447Z,18.27
2023-05-17T22:53:09.080Z,16.73
2023-05-17T22:55:54.393Z,20.60
2023-05-17T22:58:39.488Z,18.77
2023-05-17T23:01:24.992Z,21.70
2023-05-17T23:04:10.238Z,18.67
2023-05-17T23:06:56.976Z,17.83
2023-05-17T23:09:42.501Z,17.47
2023-05-17T23:12:27.301Z,17.33
2023-05-17T23:15:12.858Z,17.70
2023-05-17T23:17:58.267Z,15.67
2023-05-17T23:20:44.305Z,16.67
2023-05-17T23:23:29.866Z,15.03
2023-05-17T23:26:14.794Z,17.13
2023-05-17T23:28:59.913Z,14.97
2023-05-17T23:31:45.197Z,16.47
2023-05-17T23:34:30.672Z,18.80
2023-05-17T23:37:16.861Z,19.73
2023-05-17T23:40:03.218Z,15.83
2023-05-17T23:42:48.587Z,18.57
2023-05-17T23:45:33.490Z,21.47
2023-05-17T23:48:18.957Z,16.37
2023-05-17T23:51:04.659Z,19.63
2023-05-17T23:53:49.827Z,21.80
2023-05-17T23:56:34.912Z,17.97
2023-05-17T23:59:20.411Z,18.23
